Time;durP1;ratioP1;P1;durP2;ratioP2;P2;SDS_P1;SDS_P2;PMS_P1;PMS_P2;Temp;Humidity;BMP_temperature;BMP_pressure;BME280_temperature;BME280_humidity;BME280_pressure;Samples;Min_cycle;Max_cycle;Signal;HPM_P1;HPM_P2
2021/12/01 00:01:29;;;;;;;4.97;0.60;;;;;;;;;;4951992;28;20051;-68
2021/12/01 00:03:55;;;;;;;3.10;0.90;;;;;;;;;;4951926;28;20054;-68
2021/12/01 00:06:21;;;;;;;3.35;1.00;;;;;;;;;;4951539;28;20047;-69
2021/12/01 00:08:47;;;;;;;2.08;0.88;;;;;;;;;;4951993;28;20098;-68
2021/12/01 00:11:13;;;;;;;4.32;0.90;;;;;;;;;;4970876;28;20039;-68
2021/12/01 00:13:39;;;;;;;3.45;0.80;;;;;;;;;;4970852;28;20063;-68
2021/12/01 00:16:07;;;;;;;11.40;1.30;;;;;;;;;;4970909;28;20097;-68
2021/12/01 00:18:33;;;;;;;1.60;0.60;;;;;;;;;;4970864;28;20050;-67
2021/12/01 00:20:59;;;;;;;1.65;0.90;;;;;;;;;;4963990;28;20047;-68
2021/12/01 00:23:26;;;;;;;4.15;0.85;;;;;;;;;;4951070;28;20043;-68
2021/12/01 00:25:52;;;;;;;3.72;0.85;;;;;;;;;;4951495;28;20047;-68
2021/12/01 00:28:19;;;;;;;2.15;0.80;;;;;;;;;;4955650;28;20476;-68
2021/12/01 00:30:45;;;;;;;1.75;0.80;;;;;;;;;;4951736;28;20044;-68
2021/12/01 00:33:17;;;;;;;1.23;0.57;;;;;;;;;;4950560;28;20074;-68
2021/12/01 00:35:43;;;;;;;2.17;0.82;;;;;;;;;;4953738;28;20516;-68
2021/12/01 00:38:09;;;;;;;3.00;0.90;;;;;;;;;;4969955;28;20202;-68
2021/12/01 00:40:36;;;;;;;2.92;1.00;;;;;;;;;;4969301;28;20043;-68
2021/12/01 00:43:02;;;;;;;2.92;0.88;;;;;;;;;;4969521;28;20484;-68
2021/12/01 00:45:29;;;;;;;6.70;1.00;;;;;;;;;;4969750;28;20053;-68
2021/12/01 00:47:55;;;;;;;3.05;1.02;;;;;;;;;;4946759;28;20047;-69
2021/12/01 00:50:23;;;;;;;2.38;0.93;;;;;;;;;;4951184;28;20047;-68
2021/12/01 00:52:49;;;;;;;2.08;0.60;;;;;;;;;;4951154;28;20051;-68
2021/12/01 00:55:15;;;;;;;2.58;0.95;;;;;;;;;;4959521;28;20464;-68
2021/12/01 00:57:41;;;;;;;6.88;1.20;;;;;;;;;;4970384;28;20478;-69
2021/12/01 01:00:08;;;;;;;6.68;1.13;;;;;;;;;;4969184;28;20390;-68
2021/12/01 01:02:35;;;;;;;3.53;1.00;;;;;;;;;;4970644;28;20505;-69
2021/12/01 01:05:01;;;;;;;3.83;1.20;;;;;;;;;;4972160;28;20509;-69
2021/12/01 01:07:27;;;;;;;3.40;1.63;;;;;;;;;;4973004;28;20047;-69
2021/12/01 01:09:53;;;;;;;4.28;0.95;;;;;;;;;;4974118;28;20039;-68
2021/12/01 01:18:05;;;;;;;2.95;1.02;;;;;;;;;;4973081;28;20128;-68
2021/12/01 01:20:32;;;;;;;4.40;1.10;;;;;;;;;;4973316;28;20552;-68
2021/12/01 01:22:58;;;;;;;3.53;1.20;;;;;;;;;;4973618;28;20093;-68
2021/12/01 01:25:24;;;;;;;3.70;1.20;;;;;;;;;;4973459;28;20050;-68
2021/12/01 01:27:50;;;;;;;3.92;1.27;;;;;;;;;;4973375;28;20110;-68
2021/12/01 01:30:16;;;;;;;2.55;1.15;;;;;;;;;;4973173;28;20038;-68
2021/12/01 01:32:42;;;;;;;3.15;1.20;;;;;;;;;;4973983;28;20435;-68
2021/12/01 01:35:08;;;;;;;5.75;1.85;;;;;;;;;;4973673;28;20047;-68
2021/12/01 01:37:34;;;;;;;4.47;1.10;;;;;;;;;;4957291;28;20054;-68
2021/12/01 01:40:00;;;;;;;3.22;1.20;;;;;;;;;;4954691;28;20449;-68
2021/12/01 01:42:26;;;;;;;3.55;1.17;;;;;;;;;;4954147;28;20053;-68
2021/12/01 01:44:52;;;;;;;3.97;1.00;;;;;;;;;;4969376;28;20381;-68
2021/12/01 01:47:20;;;;;;;2.25;1.00;;;;;;;;;;4973729;28;20074;-68
2021/12/01 01:49:55;;;;;;;2.60;1.00;;;;;;;;;;4973703;28;20047;-69
2021/12/01 01:52:21;;;;;;;4.95;1.30;;;;;;;;;;4962218;28;20046;-68
2021/12/01 01:54:47;;;;;;;4.57;0.95;;;;;;;;;;4973332;28;20055;-68
2021/12/01 01:57:13;;;;;;;2.95;0.90;;;;;;;;;;4973103;28;20543;-69
2021/12/01 01:59:39;;;;;;;5.45;1.20;;;;;;;;;;4973718;28;20129;-69
2021/12/01 02:02:06;;;;;;;4.10;1.38;;;;;;;;;;4973392;28;20042;-69
2021/12/01 02:04:35;;;;;;;4.10;1.60;;;;;;;;;;4973722;28;20069;-69
2021/12/01 02:07:02;;;;;;;3.20;1.20;;;;;;;;;;4941895;28;20493;-69
2021/12/01 02:09:28;;;;;;;7.78;0.95;;;;;;;;;;4953903;28;20043;-69
2021/12/01 02:11:56;;;;;;;6.10;0.93;;;;;;;;;;4953843;28;20441;-69
2021/12/01 02:14:22;;;;;;;4.18;1.33;;;;;;;;;;4953764;28;20383;-68
2021/12/01 02:16:49;;;;;;;4.78;0.98;;;;;;;;;;4936656;29;20051;-68
2021/12/01 02:19:15;;;;;;;5.00;0.90;;;;;;;;;;4953311;28;20079;-68
2021/12/01 02:21:42;;;;;;;4.65;0.77;;;;;;;;;;4964883;28;20043;-68
2021/12/01 02:24:12;;;;;;;4.88;1.13;;;;;;;;;;4972004;28;20113;-68
2021/12/01 02:26:40;;;;;;;12.32;1.20;;;;;;;;;;4972799;28;20094;-68
2021/12/01 02:29:10;;;;;;;6.50;1.02;;;;;;;;;;4971996;28;20046;-69
2021/12/01 02:31:36;;;;;;;6.05;0.90;;;;;;;;;;4972974;28;20473;-68
2021/12/01 02:34:09;;;;;;;4.45;0.90;;;;;;;;;;4972599;28;20049;-68
2021/12/01 02:36:35;;;;;;;5.60;1.10;;;;;;;;;;4971204;28;20578;-68
2021/12/01 02:39:03;;;;;;;3.20;0.85;;;;;;;;;;4943183;28;20059;-69
2021/12/01 02:41:31;;;;;;;4.47;1.13;;;;;;;;;;4953428;28;20043;-69
2021/12/01 02:43:58;;;;;;;3.80;0.93;;;;;;;;;;4936505;29;20520;-69
2021/12/01 02:46:24;;;;;;;3.90;0.90;;;;;;;;;;4937216;28;20062;-69
2021/12/01 02:48:51;;;;;;;3.40;0.70;;;;;;;;;;4953060;28;20129;-69
2021/12/01 02:51:19;;;;;;;5.60;0.90;;;;;;;;;;4953103;28;20047;-69
2021/12/01 02:53:45;;;;;;;2.78;0.80;;;;;;;;;;4953371;28;20133;-69
2021/12/01 02:56:11;;;;;;;6.18;1.08;;;;;;;;;;4970993;28;20047;-69
2021/12/01 02:58:41;;;;;;;3.35;0.70;;;;;;;;;;4972577;28;20051;-69
2021/12/01 03:01:12;;;;;;;4.63;0.60;;;;;;;;;;4970616;28;20489;-69
2021/12/01 03:03:39;;;;;;;2.03;0.77;;;;;;;;;;4972577;28;20038;-69
2021/12/01 03:06:05;;;;;;;4.15;0.90;;;;;;;;;;4966504;28;20406;-69
2021/12/01 03:08:31;;;;;;;4.63;0.70;;;;;;;;;;4952928;28;20043;-69
2021/12/01 03:10:58;;;;;;;2.72;0.80;;;;;;;;;;4952522;28;20049;-69
2021/12/01 03:13:24;;;;;;;2.90;0.80;;;;;;;;;;4952620;28;20059;-69
2021/12/01 03:15:51;;;;;;;1.20;0.50;;;;;;;;;;4952483;28;20287;-69
2021/12/01 03:18:17;;;;;;;2.60;0.75;;;;;;;;;;4952948;28;20142;-69
2021/12/01 03:20:43;;;;;;;1.92;0.65;;;;;;;;;;4968687;28;20149;-69
2021/12/01 03:23:09;;;;;;;3.80;0.80;;;;;;;;;;4971858;28;20141;-69
2021/12/01 03:25:36;;;;;;;1.52;0.60;;;;;;;;;;4971740;28;20141;-69
2021/12/01 03:28:03;;;;;;;3.80;0.93;;;;;;;;;;4954245;28;20057;-68
2021/12/01 03:30:33;;;;;;;3.00;0.85;;;;;;;;;;4971658;28;20057;-69
2021/12/01 03:33:01;;;;;;;1.65;0.70;;;;;;;;;;4971778;28;20122;-69
2021/12/01 03:35:27;;;;;;;3.35;0.80;;;;;;;;;;4955222;28;20051;-68
2021/12/01 03:37:53;;;;;;;2.20;0.82;;;;;;;;;;4952404;28;20051;-68
2021/12/01 03:40:19;;;;;;;2.50;0.70;;;;;;;;;;4952303;28;20203;-68
2021/12/01 03:42:45;;;;;;;2.85;1.10;;;;;;;;;;4952065;28;20047;-68
2021/12/01 03:45:12;;;;;;;4.22;0.80;;;;;;;;;;4952217;28;20126;-70
2021/12/01 03:47:38;;;;;;;7.93;1.33;;;;;;;;;;4935618;29;20053;-69
2021/12/01 03:50:05;;;;;;;3.35;0.60;;;;;;;;;;4952539;28;20043;-69
2021/12/01 03:52:31;;;;;;;5.35;1.20;;;;;;;;;;4952128;28;20106;-69
2021/12/01 03:54:57;;;;;;;3.90;0.98;;;;;;;;;;4951718;28;20095;-68
2021/12/01 03:57:23;;;;;;;6.20;0.88;;;;;;;;;;4952030;28;20094;-69
2021/12/01 03:59:49;;;;;;;2.60;0.73;;;;;;;;;;4952018;28;20051;-69
2021/12/01 04:02:16;;;;;;;4.40;0.70;;;;;;;;;;4952071;28;20082;-69
2021/12/01 04:04:42;;;;;;;3.90;0.90;;;;;;;;;;4959968;28;20460;-69
2021/12/01 04:07:08;;;;;;;10.90;0.80;;;;;;;;;;4970813;28;20485;-68
2021/12/01 04:09:34;;;;;;;3.53;0.80;;;;;;;;;;4971318;28;20130;-68
2021/12/01 04:12:00;;;;;;;3.55;0.90;;;;;;;;;;4971299;28;20450;-69
2021/12/01 04:14:26;;;;;;;4.80;1.05;;;;;;;;;;4971135;28;20055;-69
2021/12/01 04:16:53;;;;;;;3.92;0.90;;;;;;;;;;4968368;28;20054;-68
2021/12/01 04:19:19;;;;;;;4.50;1.20;;;;;;;;;;4971186;28;20121;-69
2021/12/01 04:21:45;;;;;;;4.35;1.45;;;;;;;;;;4957462;28;20485;-69
2021/12/01 04:24:11;;;;;;;5.60;1.50;;;;;;;;;;4959063;28;20093;-69
2021/12/01 04:26:37;;;;;;;3.20;1.02;;;;;;;;;;4971064;28;20061;-68
2021/12/01 04:29:04;;;;;;;4.05;0.93;;;;;;;;;;4970611;28;20508;-68
2021/12/01 04:31:32;;;;;;;6.80;0.90;;;;;;;;;;4970411;28;20530;-69
2021/12/01 04:33:58;;;;;;;7.13;1.38;;;;;;;;;;4969880;28;20085;-68
2021/12/01 04:36:36;;;;;;;3.05;0.75;;;;;;;;;;4970493;28;20523;-68
2021/12/01 04:39:04;;;;;;;2.63;0.80;;;;;;;;;;4969449;28;20054;-69
2021/12/01 04:41:38;;;;;;;5.75;0.90;;;;;;;;;;4952854;28;20102;-69
2021/12/01 04:44:08;;;;;;;3.60;0.88;;;;;;;;;;4951225;28;20664;-69
2021/12/01 04:46:41;;;;;;;2.90;0.80;;;;;;;;;;4951948;28;20090;-69
2021/12/01 04:49:08;;;;;;;4.10;0.70;;;;;;;;;;4950698;28;20137;-69
2021/12/01 04:51:34;;;;;;;2.95;0.90;;;;;;;;;;4951650;28;20099;-68
2021/12/01 04:54:00;;;;;;;4.22;0.98;;;;;;;;;;4951582;28;20122;-68
2021/12/01 04:56:26;;;;;;;3.38;0.90;;;;;;;;;;4951553;28;20148;-68
2021/12/01 04:58:52;;;;;;;2.50;0.50;;;;;;;;;;4950774;28;20050;-70
2021/12/01 05:01:18;;;;;;;5.40;1.20;;;;;;;;;;4951280;28;20058;-69
2021/12/01 05:03:44;;;;;;;5.68;0.90;;;;;;;;;;4951525;28;20091;-69
2021/12/01 05:06:12;;;;;;;5.72;0.90;;;;;;;;;;4952662;28;20058;-69
2021/12/01 05:08:39;;;;;;;4.20;0.93;;;;;;;;;;4970547;28;20051;-69
2021/12/01 05:11:05;;;;;;;3.95;1.00;;;;;;;;;;4970677;28;20523;-69
2021/12/01 05:13:31;;;;;;;7.15;1.13;;;;;;;;;;4969865;28;20101;-69
2021/12/01 05:15:57;;;;;;;2.42;0.63;;;;;;;;;;4969793;28;20043;-69
2021/12/01 05:18:23;;;;;;;2.35;0.65;;;;;;;;;;4970195;28;20517;-69
2021/12/01 05:20:49;;;;;;;3.33;1.02;;;;;;;;;;4970620;28;20054;-69
2021/12/01 05:23:16;;;;;;;2.30;0.70;;;;;;;;;;4959008;28;20047;-69
2021/12/01 05:25:43;;;;;;;4.82;1.30;;;;;;;;;;4950674;28;20054;-69
2021/12/01 05:28:09;;;;;;;3.22;0.52;;;;;;;;;;4951375;28;20083;-70
2021/12/01 05:30:35;;;;;;;3.20;1.05;;;;;;;;;;4951075;28;20126;-69
2021/12/01 05:33:05;;;;;;;2.65;0.90;;;;;;;;;;4950863;28;20051;-69
2021/12/01 05:35:32;;;;;;;2.33;0.70;;;;;;;;;;4950735;28;20135;-69
2021/12/01 05:37:58;;;;;;;2.03;0.57;;;;;;;;;;4951111;28;20070;-70
2021/12/01 05:40:24;;;;;;;4.15;0.80;;;;;;;;;;4950860;28;20642;-69
2021/12/01 05:42:50;;;;;;;2.05;0.43;;;;;;;;;;4951122;28;20118;-69
2021/12/01 05:45:16;;;;;;;2.15;0.85;;;;;;;;;;4953138;28;20105;-69
2021/12/01 05:47:42;;;;;;;2.85;0.80;;;;;;;;;;4970056;28;20138;-69
2021/12/01 05:50:08;;;;;;;1.42;0.52;;;;;;;;;;4969713;28;20039;-70
2021/12/01 05:52:34;;;;;;;0.75;0.30;;;;;;;;;;4966690;28;20386;-70
2021/12/01 05:55:00;;;;;;;1.05;0.50;;;;;;;;;;4954158;28;20043;-69
2021/12/01 05:57:26;;;;;;;1.73;0.40;;;;;;;;;;4960870;28;20061;-69
2021/12/01 05:59:53;;;;;;;2.45;0.93;;;;;;;;;;4972529;28;20093;-69
2021/12/01 06:02:19;;;;;;;1.65;0.50;;;;;;;;;;4973482;28;20042;-70
2021/12/01 06:04:45;;;;;;;1.50;0.40;;;;;;;;;;4962475;28;20050;-70
2021/12/01 06:07:11;;;;;;;1.42;0.40;;;;;;;;;;4953296;28;20047;-70
2021/12/01 06:09:37;;;;;;;1.88;0.60;;;;;;;;;;4954254;28;20276;-69
2021/12/01 06:12:03;;;;;;;1.63;0.40;;;;;;;;;;4954076;28;20067;-69
2021/12/01 06:14:30;;;;;;;1.33;0.45;;;;;;;;;;4953352;28;20058;-69
2021/12/01 06:16:57;;;;;;;0.90;0.38;;;;;;;;;;4954003;29;20059;-69
2021/12/01 06:19:23;;;;;;;1.90;0.52;;;;;;;;;;4945967;28;20464;-69
2021/12/01 06:21:49;;;;;;;0.90;0.38;;;;;;;;;;4972336;28;20046;-69
2021/12/01 06:24:15;;;;;;;0.93;0.40;;;;;;;;;;4972556;28;20047;-69
2021/12/01 06:26:41;;;;;;;1.85;0.38;;;;;;;;;;4971857;28;20176;-69
2021/12/01 06:29:07;;;;;;;2.47;0.40;;;;;;;;;;4972913;28;20078;-70
2021/12/01 06:31:33;;;;;;;6.13;0.43;;;;;;;;;;4973217;28;20064;-68
2021/12/01 06:33:59;;;;;;;2.25;0.50;;;;;;;;;;4972863;28;20050;-69
2021/12/01 06:36:26;;;;;;;1.33;0.47;;;;;;;;;;4972630;28;20097;-69
2021/12/01 06:38:52;;;;;;;5.95;0.55;;;;;;;;;;4972657;28;20047;-69
2021/12/01 06:41:18;;;;;;;0.63;0.40;;;;;;;;;;4972061;28;20046;-69
2021/12/01 06:43:44;;;;;;;1.20;0.28;;;;;;;;;;4972758;28;20054;-69
2021/12/01 06:46:10;;;;;;;1.92;0.30;;;;;;;;;;4971816;28;20101;-69
2021/12/01 06:48:36;;;;;;;1.67;0.47;;;;;;;;;;4972423;28;20094;-69
2021/12/01 06:51:02;;;;;;;1.30;0.43;;;;;;;;;;4971988;28;20042;-68
2021/12/01 06:53:30;;;;;;;3.63;0.40;;;;;;;;;;4970545;28;20051;-68
2021/12/01 06:55:56;;;;;;;1.13;0.35;;;;;;;;;;4970479;28;20050;-68
2021/12/01 06:58:22;;;;;;;3.92;0.30;;;;;;;;;;4972544;28;20042;-69
2021/12/01 07:00:48;;;;;;;0.68;0.20;;;;;;;;;;4971873;28;20516;-70
2021/12/01 07:03:14;;;;;;;4.90;0.50;;;;;;;;;;4971791;28;20488;-68
2021/12/01 07:05:40;;;;;;;2.70;0.45;;;;;;;;;;4972390;28;20047;-68
2021/12/01 07:08:06;;;;;;;1.08;0.30;;;;;;;;;;4954789;28;20139;-68
2021/12/01 07:10:33;;;;;;;1.85;0.30;;;;;;;;;;4953123;28;20072;-69
2021/12/01 07:12:59;;;;;;;4.78;0.93;;;;;;;;;;4952468;28;20063;-69
2021/12/01 07:15:25;;;;;;;5.25;0.40;;;;;;;;;;4952300;28;20139;-68
2021/12/01 07:17:51;;;;;;;2.63;0.35;;;;;;;;;;4953856;28;20076;-68
2021/12/01 07:20:17;;;;;;;1.02;0.30;;;;;;;;;;4955555;28;20039;-68
2021/12/01 07:22:43;;;;;;;2.67;0.30;;;;;;;;;;4954950;28;20093;-69
2021/12/01 07:25:09;;;;;;;2.22;0.30;;;;;;;;;;4971487;28;20046;-69
2021/12/01 07:27:35;;;;;;;1.65;0.40;;;;;;;;;;4971905;28;20476;-69
2021/12/01 07:30:01;;;;;;;1.33;0.30;;;;;;;;;;4971346;28;20050;-69
2021/12/01 07:32:27;;;;;;;0.30;0.20;;;;;;;;;;4970552;28;20086;-69
2021/12/01 07:34:55;;;;;;;1.02;0.28;;;;;;;;;;4971449;28;20061;-69
2021/12/01 07:37:21;;;;;;;0.50;0.20;;;;;;;;;;4953143;28;20050;-69
2021/12/01 07:39:47;;;;;;;0.88;0.30;;;;;;;;;;4971533;28;20043;-69
2021/12/01 07:42:16;;;;;;;1.85;0.40;;;;;;;;;;4970603;28;20110;-69
2021/12/01 07:44:42;;;;;;;0.28;0.20;;;;;;;;;;4971081;28;20051;-69
2021/12/01 07:47:09;;;;;;;0.88;0.30;;;;;;;;;;4961137;28;20131;-68
2021/12/01 07:49:35;;;;;;;1.60;0.22;;;;;;;;;;4950005;28;20047;-69
2021/12/01 07:52:04;;;;;;;1.30;0.32;;;;;;;;;;4952016;28;20046;-69
2021/12/01 07:54:30;;;;;;;1.02;0.30;;;;;;;;;;4955775;28;20043;-70
2021/12/01 07:56:56;;;;;;;1.13;0.30;;;;;;;;;;4950965;28;20556;-69
2021/12/01 07:59:22;;;;;;;0.60;0.30;;;;;;;;;;4951382;28;20066;-69
2021/12/01 08:01:49;;;;;;;0.85;0.50;;;;;;;;;;4951404;28;20584;-69
2021/12/01 08:04:15;;;;;;;6.93;0.60;;;;;;;;;;4951646;28;20045;-68
2021/12/01 08:06:43;;;;;;;3.03;0.40;;;;;;;;;;4939771;28;20109;-69
2021/12/01 08:09:09;;;;;;;0.60;0.40;;;;;;;;;;4970687;28;20079;-69
2021/12/01 08:11:38;;;;;;;3.20;0.50;;;;;;;;;;4970458;28;20050;-69
2021/12/01 08:14:06;;;;;;;0.88;0.40;;;;;;;;;;4964290;28;20073;-69
2021/12/01 08:16:32;;;;;;;1.05;0.55;;;;;;;;;;4951064;28;20051;-69
2021/12/01 08:18:58;;;;;;;0.77;0.40;;;;;;;;;;4962611;28;20355;-69
2021/12/01 08:21:24;;;;;;;1.67;0.35;;;;;;;;;;4961430;28;20572;-69
2021/12/01 08:23:51;;;;;;;2.55;0.57;;;;;;;;;;4973544;28;20054;-69
2021/12/01 08:26:18;;;;;;;2.03;0.50;;;;;;;;;;4976266;28;20039;-69
2021/12/01 08:28:46;;;;;;;3.38;0.40;;;;;;;;;;4983621;28;20042;-69
2021/12/01 08:31:15;;;;;;;1.40;0.30;;;;;;;;;;4969912;28;20531;-69
2021/12/01 08:33:42;;;;;;;1.50;0.40;;;;;;;;;;4956884;28;20051;-69
2021/12/01 08:36:09;;;;;;;1.75;0.50;;;;;;;;;;4933405;28;20055;-69
2021/12/01 08:38:36;;;;;;;1.48;0.50;;;;;;;;;;4951307;28;20176;-69
2021/12/01 08:41:02;;;;;;;0.70;0.30;;;;;;;;;;4951051;28;20035;-69
2021/12/01 08:43:29;;;;;;;2.83;0.95;;;;;;;;;;4933666;28;20046;-69
2021/12/01 08:45:55;;;;;;;3.53;0.60;;;;;;;;;;4950373;28;20433;-69
2021/12/01 08:48:22;;;;;;;3.35;0.60;;;;;;;;;;4965627;28;20118;-72
2021/12/01 08:50:48;;;;;;;2.22;0.60;;;;;;;;;;4952339;28;20504;-72
2021/12/01 08:53:14;;;;;;;2.72;0.70;;;;;;;;;;4956890;28;20059;-71
2021/12/01 08:55:41;;;;;;;9.48;0.70;;;;;;;;;;4933787;29;20043;-71
2021/12/01 08:58:12;;;;;;;2.63;0.55;;;;;;;;;;4950656;28;20117;-72
2021/12/01 09:00:41;;;;;;;1.25;0.35;;;;;;;;;;4953200;28;20114;-71
2021/12/01 09:03:07;;;;;;;13.38;1.02;;;;;;;;;;4988017;28;20504;-71
2021/12/01 09:05:34;;;;;;;7.57;0.90;;;;;;;;;;4984407;28;20043;-72
2021/12/01 09:08:00;;;;;;;2.78;0.60;;;;;;;;;;4969701;28;20121;-73
2021/12/01 09:10:26;;;;;;;2.20;0.52;;;;;;;;;;4969505;28;20043;-71
2021/12/01 09:12:52;;;;;;;5.03;0.80;;;;;;;;;;4969849;28;20055;-71
2021/12/01 09:15:18;;;;;;;2.53;0.60;;;;;;;;;;4965232;28;20052;-72
2021/12/01 09:17:45;;;;;;;2.67;0.55;;;;;;;;;;4944432;28;20054;-72
2021/12/01 09:20:12;;;;;;;3.42;0.73;;;;;;;;;;4952459;28;20132;-71
2021/12/01 09:22:39;;;;;;;2.65;0.70;;;;;;;;;;4967397;28;20046;-72
2021/12/01 09:25:07;;;;;;;3.90;0.80;;;;;;;;;;4989339;28;20047;-72
2021/12/01 09:27:33;;;;;;;1.35;0.55;;;;;;;;;;4992741;28;20042;-72
2021/12/01 09:29:59;;;;;;;3.42;0.80;;;;;;;;;;4972664;28;20053;-71
2021/12/01 09:32:25;;;;;;;2.95;0.57;;;;;;;;;;4955673;28;20085;-72
2021/12/01 09:34:51;;;;;;;3.33;0.75;;;;;;;;;;4511424;28;10000032;-71
2021/12/01 09:37:17;;;;;;;2.47;0.65;;;;;;;;;;4963759;28;20057;-72
2021/12/01 09:39:44;;;;;;;4.00;0.70;;;;;;;;;;4954423;28;20442;-71
2021/12/01 09:42:11;;;;;;;7.55;0.93;;;;;;;;;;4956096;28;20047;-71
2021/12/01 09:44:37;;;;;;;2.50;0.80;;;;;;;;;;4973459;28;20047;-71
2021/12/01 09:47:04;;;;;;;7.20;0.90;;;;;;;;;;4973101;28;20051;-71
2021/12/01 09:49:30;;;;;;;5.60;1.00;;;;;;;;;;4974631;28;20413;-71
2021/12/01 09:51:56;;;;;;;7.93;1.10;;;;;;;;;;4972724;28;20047;-71
2021/12/01 09:54:22;;;;;;;8.35;1.30;;;;;;;;;;4973099;28;20058;-70
2021/12/01 09:56:48;;;;;;;4.80;1.10;;;;;;;;;;4973324;28;20086;-69
2021/12/01 09:59:14;;;;;;;4.57;1.30;;;;;;;;;;4973060;28;20065;-70
2021/12/01 10:01:41;;;;;;;6.28;1.48;;;;;;;;;;4973333;28;20058;-71
2021/12/01 10:04:07;;;;;;;8.55;1.65;;;;;;;;;;4972863;28;20489;-70
2021/12/01 10:06:33;;;;;;;3.92;1.40;;;;;;;;;;5002502;28;20053;-70
2021/12/01 10:09:02;;;;;;;6.95;1.52;;;;;;;;;;5002202;28;20085;-70
2021/12/01 10:11:29;;;;;;;9.80;2.03;;;;;;;;;;4990177;28;20054;-69
2021/12/01 10:13:55;;;;;;;6.32;2.00;;;;;;;;;;4991711;28;20050;-70
2021/12/01 10:16:23;;;;;;;8.43;1.80;;;;;;;;;;4992203;28;20050;-70
2021/12/01 10:18:51;;;;;;;9.38;1.73;;;;;;;;;;4992486;28;20081;-70
2021/12/01 10:21:49;;;;;;;8.65;2.00;;;;;;;;;;4992326;28;20093;-69
2021/12/01 10:24:21;;;;;;;7.50;1.75;;;;;;;;;;4988091;28;20143;-70
2021/12/01 10:26:52;;;;;;;6.93;1.83;;;;;;;;;;4999027;28;20054;-70
2021/12/01 10:29:23;;;;;;;8.73;1.80;;;;;;;;;;4968723;28;20399;-70
2021/12/01 10:32:00;;;;;;;6.03;1.40;;;;;;;;;;4964869;28;20053;-70
2021/12/01 10:34:29;;;;;;;5.22;1.73;;;;;;;;;;4990581;28;20046;-70
2021/12/01 10:37:08;;;;;;;7.57;1.73;;;;;;;;;;4960560;28;20643;-69
2021/12/01 10:39:34;;;;;;;8.73;2.88;;;;;;;;;;4953274;28;20839;-72
2021/12/01 10:42:04;;;;;;;3.63;1.35;;;;;;;;;;4952947;28;20102;-69
2021/12/01 10:44:30;;;;;;;9.23;1.60;;;;;;;;;;4982048;28;20046;-69
2021/12/01 10:46:57;;;;;;;6.38;1.90;;;;;;;;;;4991702;28;20057;-69
2021/12/01 10:49:33;;;;;;;6.40;1.98;;;;;;;;;;4974699;28;20412;-70
2021/12/01 10:52:00;;;;;;;7.72;1.80;;;;;;;;;;4989663;28;20049;-70
2021/12/01 10:54:26;;;;;;;5.25;1.35;;;;;;;;;;4991173;28;20084;-70
2021/12/01 10:57:10;;;;;;;6.15;1.88;;;;;;;;;;4991460;28;20460;-70
2021/12/01 10:59:44;;;;;;;8.57;1.55;;;;;;;;;;4992259;28;20053;-70
2021/12/01 11:02:11;;;;;;;6.22;1.75;;;;;;;;;;4992030;28;20057;-71
2021/12/01 11:04:46;;;;;;;6.97;1.80;;;;;;;;;;4991330;28;20046;-70
2021/12/01 11:07:31;;;;;;;3.67;1.17;;;;;;;;;;4955476;28;20043;-70
2021/12/01 11:10:10;;;;;;;8.52;1.83;;;;;;;;;;4951979;28;20054;-69
2021/12/01 11:12:36;;;;;;;5.05;1.55;;;;;;;;;;4952853;28;20421;-70
2021/12/01 11:15:21;;;;;;;11.40;2.50;;;;;;;;;;4952754;28;20051;-72
2021/12/01 11:17:47;;;;;;;5.70;1.42;;;;;;;;;;4952416;28;20474;-70
2021/12/01 11:20:31;;;;;;;7.68;1.17;;;;;;;;;;4951572;28;20058;-69
2021/12/01 11:23:06;;;;;;;5.57;1.48;;;;;;;;;;4949902;28;20449;-70
2021/12/01 11:25:35;;;;;;;5.47;1.73;;;;;;;;;;4954825;28;20090;-70
2021/12/01 11:28:01;;;;;;;5.85;1.40;;;;;;;;;;4959740;28;20126;-70
2021/12/01 11:30:27;;;;;;;6.68;1.50;;;;;;;;;;4971508;28;20065;-71
2021/12/01 11:32:54;;;;;;;8.45;1.85;;;;;;;;;;4970512;28;20117;-70
2021/12/01 11:35:20;;;;;;;5.45;1.38;;;;;;;;;;4970912;28;20082;-71
2021/12/01 11:37:54;;;;;;;8.45;2.05;;;;;;;;;;4971374;28;20057;-71
2021/12/01 11:40:20;;;;;;;10.73;2.25;;;;;;;;;;4972319;28;20065;-71
2021/12/01 11:42:47;;;;;;;9.35;2.60;;;;;;;;;;4990660;28;20161;-71
2021/12/01 11:45:13;;;;;;;13.18;2.13;;;;;;;;;;4990696;28;20436;-72
2021/12/01 11:47:46;;;;;;;9.63;2.33;;;;;;;;;;4974864;28;20051;-71
2021/12/01 11:50:13;;;;;;;7.90;1.55;;;;;;;;;;4970951;28;20047;-71
2021/12/01 11:52:47;;;;;;;8.88;2.45;;;;;;;;;;4971003;28;20051;-71
2021/12/01 11:55:13;;;;;;;7.57;2.22;;;;;;;;;;4970888;28;20390;-71
2021/12/01 11:57:40;;;;;;;8.85;2.08;;;;;;;;;;4971236;28;20546;-71
2021/12/01 12:00:07;;;;;;;9.80;2.03;;;;;;;;;;4970758;28;20042;-70
2021/12/01 12:02:34;;;;;;;10.68;1.98;;;;;;;;;;4971430;28;20047;-71
2021/12/01 12:05:00;;;;;;;10.48;2.00;;;;;;;;;;4971052;28;20046;-70
2021/12/01 12:07:26;;;;;;;10.13;1.88;;;;;;;;;;4953524;28;20421;-71
2021/12/01 12:10:05;;;;;;;9.55;1.95;;;;;;;;;;4971267;28;20053;-70
2021/12/01 12:12:49;;;;;;;7.53;1.70;;;;;;;;;;4969909;28;20059;-70
2021/12/01 12:15:33;;;;;;;9.48;2.67;;;;;;;;;;4973031;28;20465;-70
2021/12/01 12:17:59;;;;;;;7.90;1.73;;;;;;;;;;4970655;28;20105;-71
2021/12/01 12:20:30;;;;;;;6.45;2.00;;;;;;;;;;4953307;28;20046;-71
2021/12/01 12:22:58;;;;;;;8.20;1.77;;;;;;;;;;4966585;28;20057;-71
2021/12/01 12:25:37;;;;;;;7.72;1.95;;;;;;;;;;4971066;28;20170;-71
2021/12/01 12:28:19;;;;;;;7.85;1.70;;;;;;;;;;4974820;28;20053;-71
2021/12/01 12:30:45;;;;;;;11.60;2.08;;;;;;;;;;4957335;28;20335;-71
2021/12/01 12:33:24;;;;;;;8.15;1.67;;;;;;;;;;4989891;28;20093;-71
2021/12/01 12:35:51;;;;;;;8.90;1.80;;;;;;;;;;4970419;28;20082;-71
2021/12/01 12:38:18;;;;;;;5.97;1.75;;;;;;;;;;4971695;28;20137;-71
2021/12/01 12:40:44;;;;;;;6.97;1.98;;;;;;;;;;5008634;28;20500;-71
2021/12/01 12:43:23;;;;;;;14.23;1.90;;;;;;;;;;5007911;28;20042;-67
2021/12/01 12:46:06;;;;;;;12.10;2.38;;;;;;;;;;5008828;28;20108;-69
2021/12/01 12:48:37;;;;;;;8.50;1.90;;;;;;;;;;4980270;28;20047;-69
2021/12/01 12:51:18;;;;;;;10.98;2.20;;;;;;;;;;4970102;28;20131;-70
2021/12/01 12:54:08;;;;;;;9.00;2.03;;;;;;;;;;4969628;28;20138;-69
2021/12/01 12:56:46;;;;;;;7.68;1.55;;;;;;;;;;4964832;28;20058;-69
2021/12/01 12:59:21;;;;;;;7.28;2.25;;;;;;;;;;4970019;28;20493;-69
2021/12/01 13:01:52;;;;;;;9.48;2.03;;;;;;;;;;4974387;28;20097;-70
2021/12/01 13:04:37;;;;;;;4.25;1.70;;;;;;;;;;4993538;28;20050;-69
2021/12/01 13:07:23;;;;;;;6.90;1.48;;;;;;;;;;4991731;28;20104;-70
2021/12/01 13:10:06;;;;;;;10.23;1.77;;;;;;;;;;4993331;28;20047;-70
2021/12/01 13:12:53;;;;;;;7.43;2.08;;;;;;;;;;4992921;28;20137;-70
2021/12/01 13:15:20;;;;;;;8.02;1.52;;;;;;;;;;4992036;28;20497;-69
2021/12/01 13:17:47;;;;;;;6.45;1.75;;;;;;;;;;4992880;28;20050;-70
2021/12/01 13:20:13;;;;;;;6.40;1.77;;;;;;;;;;4993099;28;20489;-70
2021/12/01 13:22:39;;;;;;;8.13;1.52;;;;;;;;;;4991022;28;20058;-70
2021/12/01 13:25:07;;;;;;;8.60;1.70;;;;;;;;;;4993437;28;20057;-69
2021/12/01 13:27:45;;;;;;;5.78;1.50;;;;;;;;;;4993154;28;20050;-70
2021/12/01 13:30:11;;;;;;;7.00;1.58;;;;;;;;;;4991986;28;20038;-71
2021/12/01 13:32:37;;;;;;;13.10;1.83;;;;;;;;;;4993649;28;20400;-69
2021/12/01 13:35:04;;;;;;;13.95;1.85;;;;;;;;;;4993710;28;20385;-70
2021/12/01 13:37:30;;;;;;;6.20;1.52;;;;;;;;;;4992602;28;20476;-69
2021/12/01 13:39:56;;;;;;;6.55;1.25;;;;;;;;;;4993564;28;20073;-70
2021/12/01 13:42:24;;;;;;;6.57;1.65;;;;;;;;;;4993441;28;20500;-70
2021/12/01 13:44:51;;;;;;;8.80;1.85;;;;;;;;;;4992668;28;20050;-68
2021/12/01 13:47:17;;;;;;;9.20;1.60;;;;;;;;;;4992779;28;20077;-69
2021/12/01 13:49:57;;;;;;;7.40;1.77;;;;;;;;;;4993499;28;20090;-69
2021/12/01 13:52:22;;;;;;;;;;;;;;;;;;4993582;28;20050;-70
2021/12/01 13:54:48;;;;;;;5.43;1.58;;;;;;;;;;4992823;28;20064;-69
2021/12/01 13:57:15;;;;;;;7.80;1.52;;;;;;;;;;4992988;28;20112;-69
2021/12/01 13:59:48;;;;;;;4.05;1.15;;;;;;;;;;4988630;28;20035;-69
2021/12/01 14:02:25;;;;;;;5.25;1.20;;;;;;;;;;4973774;28;20078;-69
2021/12/01 14:04:52;;;;;;;9.65;1.48;;;;;;;;;;4973932;28;20104;-70
2021/12/01 14:07:18;;;;;;;6.35;1.50;;;;;;;;;;4974747;28;20047;-69
2021/12/01 14:09:57;;;;;;;10.30;1.50;;;;;;;;;;4959233;28;20051;-70
2021/12/01 14:12:26;;;;;;;6.00;1.17;;;;;;;;;;5011721;28;20104;-70
2021/12/01 14:14:52;;;;;;;9.60;2.15;;;;;;;;;;4989061;28;20055;-70
2021/12/01 14:17:19;;;;;;;5.43;1.20;;;;;;;;;;4973861;28;20086;-70
2021/12/01 14:19:45;;;;;;;8.18;1.48;;;;;;;;;;4975030;28;20069;-70
2021/12/01 14:22:12;;;;;;;7.25;1.30;;;;;;;;;;4978686;28;20049;-68
2021/12/01 14:24:38;;;;;;;4.97;1.30;;;;;;;;;;4993643;28;20350;-70
2021/12/01 14:27:08;;;;;;;4.30;1.20;;;;;;;;;;4981604;28;20105;-69
2021/12/01 14:29:36;;;;;;;7.05;1.10;;;;;;;;;;4974003;28;20042;-69
2021/12/01 14:32:07;;;;;;;4.35;1.25;;;;;;;;;;4974088;28;20086;-69
2021/12/01 14:34:38;;;;;;;7.03;1.40;;;;;;;;;;4976961;28;20403;-69
2021/12/01 14:37:06;;;;;;;7.50;1.30;;;;;;;;;;4993381;28;20050;-70
2021/12/01 14:39:32;;;;;;;5.50;1.20;;;;;;;;;;4992837;28;20108;-70
2021/12/01 14:41:59;;;;;;;7.57;1.58;;;;;;;;;;4989723;28;20043;-70
2021/12/01 14:44:35;;;;;;;4.90;1.40;;;;;;;;;;4992292;28;20050;-69
2021/12/01 14:47:03;;;;;;;6.45;1.40;;;;;;;;;;5002017;28;20042;-70
2021/12/01 14:49:56;;;;;;;5.63;1.48;;;;;;;;;;5004175;28;20129;-70
2021/12/01 14:52:29;;;;;;;7.30;1.70;;;;;;;;;;4953225;28;20069;-70
2021/12/01 14:55:02;;;;;;;6.18;1.50;;;;;;;;;;4972558;28;20047;-70